CheckWX is a tool to help pilots better visualize weather data.  It is not intended as a substitute for an official pre-flight weather briefing.

08:04:20 UTC

OETR TAF
Turaif Domestic Airport
Saudi Arabia
TAF OETR 182300Z 1900/2006 10006KT CAVOK BECMG 1906/1908 22010KT

Mar-19@
00:00 UTC

Mar-19 @ 00:00 UTC

Mar-19@
06:00 UTC

Mar-19 @ 06:00 UTC

TAF OETR 182300Z 1900/2006 10006KT CAVOK

Expired

Wind
  • 100° at 6 KTS
Conditions
No significant weather
Cloud Levels
  • No significant clouds

Mar-19@
06:00 UTC

Mar-19 @ 06:00 UTC

Mar-20@
06:00 UTC

Mar-20 @ 06:00 UTC

BECMG 1906/1908 22010KT

Becoming

Becoming Conditions expected by Tue, Mar 19, 2019 @ 08:00 UTC

Wind
  • 220° at 10 KTS
Conditions
No significant weather
Cloud Levels
  • No significant clouds